Time;durP1;ratioP1;P1;durP2;ratioP2;P2;SDS_P1;SDS_P2;PMS_P1;PMS_P2;Temp;Humidity;BMP_temperature;BMP_pressure;BME280_temperature;BME280_humidity;BME280_pressure;Samples;Min_cycle;Max_cycle;Signal;HPM_P1;HPM_P2
2022/05/14 00:00:17;;;;;;;11.10;3.25;;;;;;;;;;10256236;28;20053;-61
2022/05/14 00:05:13;;;;;;;8.57;2.28;;;;;;;;;;10287161;28;20048;-61
2022/05/14 00:10:10;;;;;;;15.38;3.08;;;;;;;;;;10253770;28;20045;-61
2022/05/14 00:15:07;;;;;;;8.77;2.30;;;;;;;;;;10271762;28;20244;-61
2022/05/14 00:20:03;;;;;;;11.40;3.08;;;;;;;;;;10250659;28;20525;-61
2022/05/14 00:25:00;;;;;;;9.07;2.80;;;;;;;;;;10274076;28;20085;-61
2022/05/14 00:29:56;;;;;;;11.68;3.20;;;;;;;;;;10267772;28;20496;-64
2022/05/14 00:34:53;;;;;;;11.02;2.95;;;;;;;;;;10275651;28;20102;-61
2022/05/14 00:39:49;;;;;;;11.13;2.83;;;;;;;;;;10273042;28;20859;-61
2022/05/14 00:44:45;;;;;;;11.88;3.00;;;;;;;;;;10271507;28;20515;-61
2022/05/14 00:49:42;;;;;;;13.52;3.33;;;;;;;;;;10267681;28;20725;-63
2022/05/14 00:54:43;;;;;;;13.93;3.10;;;;;;;;;;10271397;28;20068;-63
2022/05/14 00:59:40;;;;;;;9.77;4.10;;;;;;;;;;10252969;28;20042;-61
2022/05/14 01:04:38;;;;;;;11.68;2.80;;;;;;;;;;10261727;28;20057;-61
2022/05/14 01:09:35;;;;;;;13.38;3.40;;;;;;;;;;10272637;28;20064;-61
2022/05/14 01:14:32;;;;;;;12.60;3.85;;;;;;;;;;10275411;28;20070;-61
2022/05/14 01:19:28;;;;;;;9.77;3.45;;;;;;;;;;10279295;28;20411;-62
2022/05/14 01:29:46;;;;;;;10.85;4.13;;;;;;;;;;10270486;28;20049;-60
2022/05/14 01:34:44;;;;;;;13.88;4.05;;;;;;;;;;10279984;28;20127;-61
2022/05/14 01:39:40;;;;;;;13.73;4.00;;;;;;;;;;10272670;28;20111;-63
2022/05/14 01:44:36;;;;;;;12.60;3.97;;;;;;;;;;10271829;28;20599;-63
2022/05/14 01:49:32;;;;;;;15.48;4.32;;;;;;;;;;10244890;28;20100;-63
2022/05/14 01:54:29;;;;;;;12.25;3.60;;;;;;;;;;10262805;28;20088;-63
2022/05/14 01:59:26;;;;;;;12.15;3.75;;;;;;;;;;10274580;28;20145;-63
2022/05/14 02:04:22;;;;;;;11.13;3.88;;;;;;;;;;10283685;28;20119;-63
2022/05/14 02:09:19;;;;;;;16.83;4.13;;;;;;;;;;10274635;28;20079;-63
2022/05/14 02:14:15;;;;;;;12.63;4.03;;;;;;;;;;10266368;28;20073;-63
2022/05/14 02:19:12;;;;;;;10.82;3.83;;;;;;;;;;10271861;28;20460;-62
2022/05/14 02:24:08;;;;;;;10.40;3.90;;;;;;;;;;10267350;28;20045;-64
2022/05/14 02:29:04;;;;;;;11.18;3.65;;;;;;;;;;10300902;28;20593;-64
2022/05/14 02:34:01;;;;;;;9.48;3.70;;;;;;;;;;10272155;28;20136;-64
2022/05/14 02:38:57;;;;;;;15.85;4.10;;;;;;;;;;10271666;28;20148;-62
2022/05/14 02:43:53;;;;;;;11.23;3.70;;;;;;;;;;10258267;28;20071;-62
2022/05/14 02:48:50;;;;;;;14.57;4.13;;;;;;;;;;10264585;28;20139;-62
2022/05/14 02:53:47;;;;;;;14.43;4.07;;;;;;;;;;10260100;28;20073;-62
2022/05/14 03:03:59;;;;;;;16.90;4.47;;;;;;;;;;10265649;28;20127;-62
2022/05/14 03:08:56;;;;;;;15.90;5.15;;;;;;;;;;10274583;28;20422;-62
2022/05/14 03:13:52;;;;;;;20.80;5.40;;;;;;;;;;10269143;28;20118;-60
2022/05/14 03:18:48;;;;;;;13.25;4.15;;;;;;;;;;10259510;28;20053;-61
2022/05/14 03:23:44;;;;;;;14.30;4.18;;;;;;;;;;10267841;28;20135;-63
2022/05/14 03:28:41;;;;;;;14.43;4.57;;;;;;;;;;10271711;28;20136;-64
2022/05/14 03:33:37;;;;;;;14.25;3.95;;;;;;;;;;10267363;28;20701;-64
2022/05/14 03:38:33;;;;;;;12.35;4.75;;;;;;;;;;10279321;28;20047;-63
2022/05/14 03:43:30;;;;;;;15.15;4.20;;;;;;;;;;10268205;28;20613;-65
2022/05/14 03:48:26;;;;;;;14.68;5.53;;;;;;;;;;10264866;28;20075;-65
2022/05/14 03:53:23;;;;;;;15.85;5.35;;;;;;;;;;10265730;28;20675;-66
2022/05/14 03:58:19;;;;;;;18.75;4.95;;;;;;;;;;10261560;28;20144;-65
2022/05/14 04:03:15;;;;;;;17.35;4.85;;;;;;;;;;10266828;28;20044;-65
2022/05/14 04:08:12;;;;;;;20.80;5.75;;;;;;;;;;10273847;28;20041;-65
2022/05/14 04:13:09;;;;;;;19.08;4.70;;;;;;;;;;10267910;28;20095;-65
2022/05/14 04:18:06;;;;;;;12.23;4.60;;;;;;;;;;10257513;28;20049;-66
2022/05/14 04:23:02;;;;;;;17.17;5.22;;;;;;;;;;10270058;28;20478;-65
2022/05/14 04:27:59;;;;;;;16.83;5.18;;;;;;;;;;10264033;28;20053;-65
2022/05/14 04:32:55;;;;;;;16.65;5.30;;;;;;;;;;10268710;28;20159;-66
2022/05/14 04:37:52;;;;;;;14.98;5.53;;;;;;;;;;10263468;28;20076;-66
2022/05/14 04:42:49;;;;;;;20.60;5.68;;;;;;;;;;10253497;28;20136;-66
2022/05/14 04:47:45;;;;;;;16.92;4.72;;;;;;;;;;10281017;28;20062;-65
2022/05/14 04:52:42;;;;;;;13.90;4.45;;;;;;;;;;10270960;28;20081;-67
2022/05/14 04:57:40;;;;;;;17.85;5.40;;;;;;;;;;10274931;28;20538;-63
2022/05/14 05:07:52;;;;;;;15.75;4.43;;;;;;;;;;10284471;28;20590;-65
2022/05/14 05:12:48;;;;;;;16.48;5.10;;;;;;;;;;10258375;28;20068;-65
2022/05/14 05:17:44;;;;;;;17.25;5.75;;;;;;;;;;10263647;28;20126;-64
2022/05/14 05:22:42;;;;;;;18.17;5.40;;;;;;;;;;10252799;28;20120;-64
2022/05/14 05:27:39;;;;;;;17.02;5.00;;;;;;;;;;10245003;28;20049;-64
2022/05/14 05:32:35;;;;;;;16.52;5.28;;;;;;;;;;10243404;28;20626;-64
2022/05/14 05:37:32;;;;;;;20.52;5.50;;;;;;;;;;10255070;28;20049;-63
2022/05/14 05:42:28;;;;;;;18.83;5.47;;;;;;;;;;10247811;28;20072;-63
2022/05/14 05:47:25;;;;;;;20.70;5.45;;;;;;;;;;10236269;28;20049;-64
2022/05/14 05:52:21;;;;;;;23.15;5.43;;;;;;;;;;10241766;28;20044;-65
2022/05/14 05:57:17;;;;;;;19.63;4.63;;;;;;;;;;10240891;28;20072;-65
2022/05/14 06:02:14;;;;;;;24.50;4.90;;;;;;;;;;10241410;28;20041;-65
2022/05/14 06:07:10;;;;;;;19.02;5.22;;;;;;;;;;10236920;28;20045;-67
2022/05/14 06:12:07;;;;;;;16.77;5.13;;;;;;;;;;10240409;28;20135;-65
2022/05/14 06:17:03;;;;;;;22.13;5.18;;;;;;;;;;10236853;28;20080;-66
2022/05/14 06:22:01;;;;;;;23.20;5.25;;;;;;;;;;10227201;28;20072;-67
2022/05/14 06:26:58;;;;;;;20.02;5.82;;;;;;;;;;10232967;28;20134;-65
2022/05/14 06:31:54;;;;;;;21.65;6.05;;;;;;;;;;10237187;28;20168;-65
2022/05/14 06:36:51;;;;;;;23.83;6.15;;;;;;;;;;10236424;28;20049;-65
2022/05/14 06:41:48;;;;;;;22.02;5.22;;;;;;;;;;10237449;28;20079;-66
2022/05/14 06:46:45;;;;;;;27.65;5.15;;;;;;;;;;10244287;28;20464;-65
2022/05/14 06:51:41;;;;;;;23.33;5.55;;;;;;;;;;10250866;28;20048;-65
2022/05/14 06:56:39;;;;;;;26.60;5.63;;;;;;;;;;10249074;28;20045;-66
2022/05/14 07:01:38;;;;;;;21.48;4.90;;;;;;;;;;10256080;28;20073;-64
2022/05/14 07:06:38;;;;;;;23.60;5.13;;;;;;;;;;10253899;28;20469;-64
2022/05/14 07:11:35;;;;;;;22.55;6.10;;;;;;;;;;10257261;28;20604;-62
2022/05/14 07:16:32;;;;;;;19.08;4.60;;;;;;;;;;10256622;28;20666;-65
2022/05/14 07:21:29;;;;;;;21.83;4.60;;;;;;;;;;10239469;28;20392;-61
2022/05/14 07:26:27;;;;;;;27.08;5.78;;;;;;;;;;10242415;28;20045;-62
2022/05/14 07:31:23;;;;;;;19.33;4.40;;;;;;;;;;10250809;28;20141;-62
2022/05/14 07:36:20;;;;;;;21.90;4.80;;;;;;;;;;10272970;28;20522;-62
2022/05/14 07:41:17;;;;;;;16.63;3.75;;;;;;;;;;10294356;28;20060;-62
2022/05/14 07:46:16;;;;;;;19.30;4.40;;;;;;;;;;10257619;28;20079;-62
2022/05/14 07:51:13;;;;;;;24.17;4.35;;;;;;;;;;10268081;28;20135;-62
2022/05/14 07:56:09;;;;;;;16.50;4.80;;;;;;;;;;10266778;28;20160;-62
2022/05/14 08:01:05;;;;;;;17.20;3.83;;;;;;;;;;10262539;28;20160;-61
2022/05/14 08:06:02;;;;;;;16.92;3.97;;;;;;;;;;10232271;28;20049;-63
2022/05/14 08:10:58;;;;;;;15.00;3.67;;;;;;;;;;10232178;28;20044;-62
2022/05/14 08:15:55;;;;;;;24.30;5.10;;;;;;;;;;10238518;28;20568;-62
2022/05/14 08:20:51;;;;;;;14.43;3.38;;;;;;;;;;10227906;28;20046;-62
2022/05/14 08:25:48;;;;;;;15.38;3.50;;;;;;;;;;10233774;28;20423;-60
2022/05/14 08:30:45;;;;;;;16.10;4.88;;;;;;;;;;10245706;28;20452;-60
2022/05/14 08:35:42;;;;;;;16.42;3.90;;;;;;;;;;10289616;28;20499;-60
2022/05/14 08:40:46;;;;;;;11.57;3.30;;;;;;;;;;10269569;28;20771;-60
2022/05/14 08:45:44;;;;;;;12.77;3.53;;;;;;;;;;10241320;28;20048;-61
2022/05/14 08:50:42;;;;;;;13.02;3.72;;;;;;;;;;10249528;28;20088;-61
2022/05/14 08:56:07;;;;;;;14.80;3.80;;;;;;;;;;10265002;28;20132;-61
2022/05/14 09:01:05;;;;;;;16.23;3.20;;;;;;;;;;10222277;28;20490;-61
2022/05/14 09:06:02;;;;;;;18.90;3.03;;;;;;;;;;10260098;28;20556;-61
2022/05/14 09:11:00;;;;;;;14.05;2.78;;;;;;;;;;10251892;28;20059;-62
2022/05/14 09:16:02;;;;;;;13.32;3.53;;;;;;;;;;10244167;28;20106;-62
2022/05/14 09:21:04;;;;;;;16.73;3.67;;;;;;;;;;10251255;28;20049;-61
2022/05/14 09:26:08;;;;;;;12.70;2.83;;;;;;;;;;10236109;28;20137;-64
2022/05/14 09:31:04;;;;;;;14.50;2.88;;;;;;;;;;10230147;28;20129;-65
2022/05/14 09:36:04;;;;;;;15.45;3.00;;;;;;;;;;10243292;28;20041;-65
2022/05/14 09:41:27;;;;;;;13.05;2.65;;;;;;;;;;10252758;28;20155;-65
2022/05/14 09:46:26;;;;;;;11.68;2.70;;;;;;;;;;10249289;28;20075;-65
2022/05/14 09:51:28;;;;;;;16.92;4.00;;;;;;;;;;10255746;28;20132;-65
2022/05/14 09:56:32;;;;;;;13.38;2.60;;;;;;;;;;10251843;28;20080;-65
2022/05/14 10:01:33;;;;;;;13.23;2.50;;;;;;;;;;10231575;28;20100;-64
2022/05/14 10:06:40;;;;;;;11.82;3.28;;;;;;;;;;10233683;28;20045;-65
2022/05/14 10:11:44;;;;;;;13.35;2.47;;;;;;;;;;10231484;28;20080;-65
2022/05/14 10:16:43;;;;;;;9.23;2.60;;;;;;;;;;10246910;28;20057;-65
2022/05/14 10:21:58;;;;;;;12.25;2.97;;;;;;;;;;10239694;28;20045;-63
2022/05/14 10:26:57;;;;;;;11.80;2.75;;;;;;;;;;10251049;28;20079;-63
2022/05/14 10:31:54;;;;;;;13.70;2.30;;;;;;;;;;10273321;28;20083;-64
2022/05/14 10:36:58;;;;;;;15.32;2.97;;;;;;;;;;10268549;28;20036;-64
2022/05/14 10:42:08;;;;;;;11.32;2.55;;;;;;;;;;10270209;28;20144;-64
2022/05/14 10:47:07;;;;;;;12.55;2.85;;;;;;;;;;10259484;28;20083;-64
2022/05/14 10:52:03;;;;;;;13.85;3.28;;;;;;;;;;10251587;28;20144;-63
2022/05/14 10:57:01;;;;;;;15.73;3.35;;;;;;;;;;10258800;28;20128;-64
2022/05/14 11:02:24;;;;;;;18.45;3.55;;;;;;;;;;10267085;28;20049;-64
2022/05/14 11:07:30;;;;;;;10.88;2.50;;;;;;;;;;10252376;28;20053;-64
2022/05/14 11:12:26;;;;;;;10.55;2.80;;;;;;;;;;10229371;28;20600;-64
2022/05/14 11:17:28;;;;;;;14.00;3.10;;;;;;;;;;10238120;28;20530;-64
2022/05/14 11:22:27;;;;;;;16.33;2.72;;;;;;;;;;10219758;28;20092;-63
2022/05/14 11:27:25;;;;;;;17.40;2.70;;;;;;;;;;10219030;28;20135;-64
2022/05/14 11:32:23;;;;;;;6.40;1.75;;;;;;;;;;10244916;28;20141;-63
2022/05/14 11:37:33;;;;;;;13.25;2.70;;;;;;;;;;10242247;28;20046;-64
2022/05/14 11:42:30;;;;;;;15.07;3.17;;;;;;;;;;10228718;28;20142;-64
2022/05/14 11:47:41;;;;;;;18.98;3.22;;;;;;;;;;10214777;28;20049;-64
2022/05/14 11:52:42;;;;;;;13.63;2.90;;;;;;;;;;10225315;28;20370;-64
2022/05/14 11:57:41;;;;;;;10.43;2.35;;;;;;;;;;10232475;28;20507;-64
2022/05/14 12:02:47;;;;;;;12.15;2.67;;;;;;;;;;10228122;28;20065;-60
2022/05/14 12:07:57;;;;;;;11.63;2.75;;;;;;;;;;10233447;28;20126;-65
2022/05/14 12:12:53;;;;;;;15.55;3.13;;;;;;;;;;10241335;28;20041;-65
2022/05/14 12:17:50;;;;;;;10.68;3.30;;;;;;;;;;10261492;28;20503;-65
2022/05/14 12:23:06;;;;;;;13.23;3.47;;;;;;;;;;10251132;28;20128;-64
2022/05/14 12:28:05;;;;;;;14.85;3.03;;;;;;;;;;10274952;28;20065;-65
2022/05/14 12:33:14;;;;;;;14.80;3.45;;;;;;;;;;10277245;28;20132;-64
2022/05/14 12:38:11;;;;;;;11.05;2.92;;;;;;;;;;10270791;28;20120;-64
2022/05/14 12:43:12;;;;;;;12.15;3.50;;;;;;;;;;10242840;28;20496;-64
2022/05/14 12:48:10;;;;;;;15.70;2.80;;;;;;;;;;10234229;28;20467;-64
2022/05/14 12:53:08;;;;;;;10.00;2.40;;;;;;;;;;10246607;28;20144;-63
2022/05/14 12:58:06;;;;;;;10.75;2.88;;;;;;;;;;10245151;28;20128;-63
2022/05/14 13:03:23;;;;;;;12.40;2.42;;;;;;;;;;10244903;28;20037;-65
2022/05/14 13:08:21;;;;;;;12.50;3.85;;;;;;;;;;10222579;28;20127;-65
2022/05/14 13:13:18;;;;;;;13.88;3.88;;;;;;;;;;10231116;28;20440;-68
2022/05/14 13:18:20;;;;;;;11.88;3.10;;;;;;;;;;10244117;28;20505;-68
2022/05/14 13:23:19;;;;;;;10.80;2.67;;;;;;;;;;10243960;28;20179;-68
2022/05/14 13:28:27;;;;;;;13.48;3.20;;;;;;;;;;10247579;28;20040;-69
2022/05/14 13:33:41;;;;;;;11.98;2.35;;;;;;;;;;10261347;28;20041;-67
2022/05/14 13:38:39;;;;;;;7.68;1.65;;;;;;;;;;10254333;28;20048;-66
2022/05/14 13:43:37;;;;;;;9.85;2.40;;;;;;;;;;10247790;28;20185;-66
2022/05/14 13:48:38;;;;;;;9.82;2.28;;;;;;;;;;10271835;28;20044;-67
2022/05/14 13:53:41;;;;;;;10.80;2.10;;;;;;;;;;10267241;28;20056;-66
2022/05/14 13:58:41;;;;;;;7.90;1.90;;;;;;;;;;10247392;28;20053;-67
2022/05/14 14:03:46;;;;;;;10.50;2.67;;;;;;;;;;10254844;28;20720;-68
2022/05/14 14:08:43;;;;;;;9.30;1.80;;;;;;;;;;10257231;28;20076;-67
2022/05/14 14:13:40;;;;;;;10.27;2.35;;;;;;;;;;10246610;28;20495;-67
2022/05/14 14:18:36;;;;;;;8.98;1.52;;;;;;;;;;10246032;28;20047;-66
2022/05/14 14:23:34;;;;;;;6.40;1.98;;;;;;;;;;10251468;28;20131;-67
2022/05/14 14:28:31;;;;;;;10.70;2.65;;;;;;;;;;10244434;28;20103;-67
2022/05/14 14:33:27;;;;;;;5.43;1.45;;;;;;;;;;10244062;28;20529;-67
2022/05/14 14:38:24;;;;;;;8.35;1.70;;;;;;;;;;10245045;28;20083;-68
2022/05/14 14:43:22;;;;;;;10.75;2.60;;;;;;;;;;10241771;28;20495;-67
2022/05/14 14:48:19;;;;;;;11.13;2.47;;;;;;;;;;10257866;28;20049;-68
2022/05/14 14:53:16;;;;;;;13.13;4.40;;;;;;;;;;10234865;28;20072;-68
2022/05/14 14:58:13;;;;;;;11.27;4.07;;;;;;;;;;10234099;28;20590;-67
2022/05/14 15:03:18;;;;;;;8.30;2.38;;;;;;;;;;10240317;28;20099;-68
2022/05/14 15:08:21;;;;;;;6.88;1.45;;;;;;;;;;10230608;28;20795;-67
2022/05/14 15:13:20;;;;;;;8.95;2.40;;;;;;;;;;10220259;28;20057;-64
2022/05/14 15:18:16;;;;;;;7.63;1.95;;;;;;;;;;10230711;28;20057;-67
2022/05/14 15:23:13;;;;;;;7.50;2.55;;;;;;;;;;10279796;28;20140;-67
2022/05/14 15:28:09;;;;;;;9.45;2.25;;;;;;;;;;10279288;28;20072;-67
2022/05/14 15:33:06;;;;;;;9.15;2.00;;;;;;;;;;10270183;28;20073;-67
2022/05/14 15:38:02;;;;;;;8.55;2.00;;;;;;;;;;10271272;28;20049;-67
2022/05/14 15:43:01;;;;;;;7.60;1.92;;;;;;;;;;10270297;28;20667;-67
2022/05/14 15:48:00;;;;;;;9.77;2.40;;;;;;;;;;10237507;28;20056;-67
2022/05/14 15:52:56;;;;;;;8.40;2.58;;;;;;;;;;10244484;28;20046;-68
2022/05/14 15:57:54;;;;;;;10.55;2.33;;;;;;;;;;10241396;28;20048;-67
2022/05/14 16:02:53;;;;;;;11.80;2.60;;;;;;;;;;10259313;28;20075;-67
2022/05/14 16:07:49;;;;;;;9.57;2.20;;;;;;;;;;10266374;28;20049;-68
2022/05/14 16:18:00;;;;;;;11.93;2.95;;;;;;;;;;10292995;28;20048;-67
2022/05/14 16:22:57;;;;;;;10.30;1.98;;;;;;;;;;10247473;28;20037;-67
2022/05/14 16:27:53;;;;;;;11.32;2.67;;;;;;;;;;10238248;28;20107;-67
2022/05/14 16:32:49;;;;;;;11.25;2.70;;;;;;;;;;10241391;28;20127;-68
2022/05/14 16:37:46;;;;;;;9.38;2.58;;;;;;;;;;10265015;28;20471;-67
2022/05/14 16:42:43;;;;;;;8.38;2.03;;;;;;;;;;10240333;28;20167;-69
2022/05/14 16:47:40;;;;;;;9.10;2.13;;;;;;;;;;10237961;28;20143;-69
2022/05/14 16:52:37;;;;;;;7.03;2.08;;;;;;;;;;10237791;28;20122;-67
2022/05/14 16:57:34;;;;;;;17.00;2.70;;;;;;;;;;10228483;28;20096;-65
2022/05/14 17:02:30;;;;;;;9.88;2.20;;;;;;;;;;10233336;28;20455;-65
2022/05/14 17:07:27;;;;;;;9.70;2.80;;;;;;;;;;10229856;28;20080;-64
2022/05/14 17:12:24;;;;;;;24.25;9.90;;;;;;;;;;10263618;28;20110;-65
2022/05/14 17:17:20;;;;;;;56.55;40.67;;;;;;;;;;10236475;28;20073;-65
2022/05/14 17:22:17;;;;;;;11.40;3.28;;;;;;;;;;10243433;28;20037;-65
2022/05/14 17:27:13;;;;;;;11.38;2.38;;;;;;;;;;10282028;28;20102;-65
2022/05/14 17:32:10;;;;;;;11.60;3.75;;;;;;;;;;10283995;28;20136;-65
2022/05/14 17:42:24;;;;;;;9.57;3.72;;;;;;;;;;10240009;28;20053;-65
2022/05/14 17:47:20;;;;;;;9.82;2.58;;;;;;;;;;10247851;28;20037;-66
2022/05/14 17:52:17;;;;;;;13.75;3.58;;;;;;;;;;10235923;28;20080;-67
2022/05/14 17:57:14;;;;;;;12.30;2.90;;;;;;;;;;10233389;28;20217;-67
2022/05/14 18:02:11;;;;;;;14.88;5.13;;;;;;;;;;10245555;28;20061;-68
2022/05/14 18:07:08;;;;;;;14.13;2.95;;;;;;;;;;10255783;28;20127;-67
2022/05/14 18:12:05;;;;;;;13.85;3.20;;;;;;;;;;10246089;28;20128;-68
2022/05/14 18:17:04;;;;;;;11.30;3.22;;;;;;;;;;10245472;28;20041;-67
2022/05/14 18:22:00;;;;;;;10.98;3.42;;;;;;;;;;10274895;28;20048;-67
2022/05/14 18:26:56;;;;;;;13.77;3.78;;;;;;;;;;10273717;28;20041;-67
2022/05/14 18:31:54;;;;;;;15.50;4.30;;;;;;;;;;10289433;28;20053;-67
2022/05/14 18:36:53;;;;;;;15.30;3.15;;;;;;;;;;10235116;28;20065;-67
2022/05/14 18:41:52;;;;;;;15.68;3.75;;;;;;;;;;10242651;28;20183;-67
2022/05/14 18:46:48;;;;;;;12.77;2.38;;;;;;;;;;10248050;28;20316;-68
2022/05/14 18:51:45;;;;;;;12.90;3.60;;;;;;;;;;10249072;28;20053;-68
2022/05/14 18:56:41;;;;;;;13.48;3.47;;;;;;;;;;10244470;28;20484;-68
2022/05/14 19:01:40;;;;;;;16.45;3.83;;;;;;;;;;10253176;28;20136;-67
2022/05/14 19:11:53;;;;;;;13.15;2.92;;;;;;;;;;10262438;28;20045;-68
2022/05/14 19:16:49;;;;;;;14.77;2.97;;;;;;;;;;10249104;28;20049;-67
2022/05/14 19:21:46;;;;;;;13.95;3.38;;;;;;;;;;10248697;28;20072;-68
2022/05/14 19:26:46;;;;;;;16.58;3.97;;;;;;;;;;10247290;28;20050;-68
2022/05/14 19:31:43;;;;;;;15.73;3.58;;;;;;;;;;10264075;28;20526;-68
2022/05/14 19:36:40;;;;;;;18.13;4.72;;;;;;;;;;10252121;28;20132;-68
2022/05/14 19:41:39;;;;;;;14.43;4.18;;;;;;;;;;10264638;28;20905;-67
2022/05/14 19:46:37;;;;;;;14.57;3.13;;;;;;;;;;10266228;28;20163;-67
2022/05/14 19:51:33;;;;;;;27.48;4.70;;;;;;;;;;10242501;28;20037;-68
2022/05/14 19:56:31;;;;;;;14.50;4.25;;;;;;;;;;10236199;28;20037;-67
2022/05/14 20:01:28;;;;;;;13.55;4.07;;;;;;;;;;10273780;28;20440;-68
2022/05/14 20:06:25;;;;;;;20.60;4.75;;;;;;;;;;10281609;28;20072;-68
2022/05/14 20:11:21;;;;;;;16.75;3.85;;;;;;;;;;10270592;28;20617;-69
2022/05/14 20:21:32;;;;;;;16.40;4.45;;;;;;;;;;10236943;28;20069;-68
2022/05/14 20:26:29;;;;;;;13.43;4.60;;;;;;;;;;10229106;28;20503;-68
2022/05/14 20:31:27;;;;;;;18.08;4.28;;;;;;;;;;10262837;28;20057;-68
2022/05/14 20:36:23;;;;;;;11.60;3.47;;;;;;;;;;10230118;28;20128;-68
2022/05/14 20:41:20;;;;;;;19.00;5.55;;;;;;;;;;10242723;28;20095;-68
2022/05/14 20:46:16;;;;;;;19.05;5.80;;;;;;;;;;10261057;28;20473;-68
2022/05/14 20:51:13;;;;;;;21.08;5.57;;;;;;;;;;10288582;28;20640;-68
2022/05/14 20:56:09;;;;;;;16.38;5.38;;;;;;;;;;10248701;28;20079;-67
2022/05/14 21:01:06;;;;;;;13.52;4.43;;;;;;;;;;10259789;28;20128;-68
2022/05/14 21:06:02;;;;;;;15.65;4.10;;;;;;;;;;10264864;28;20041;-68
2022/05/14 21:10:59;;;;;;;17.15;5.13;;;;;;;;;;10250948;28;20152;-67
2022/05/14 21:15:55;;;;;;;16.40;4.40;;;;;;;;;;10247238;28;20072;-68
2022/05/14 21:20:52;;;;;;;17.92;3.83;;;;;;;;;;10251931;28;20057;-68
2022/05/14 21:25:48;;;;;;;16.17;4.85;;;;;;;;;;10245785;28;20046;-67
2022/05/14 21:30:45;;;;;;;20.90;6.57;;;;;;;;;;10260056;28;20078;-67
2022/05/14 21:40:56;;;;;;;17.83;5.35;;;;;;;;;;10237095;28;20546;-67
2022/05/14 21:45:53;;;;;;;14.88;5.00;;;;;;;;;;10261729;28;20072;-67
2022/05/14 21:50:49;;;;;;;19.13;5.32;;;;;;;;;;10269643;28;20053;-67
2022/05/14 21:55:47;;;;;;;19.98;5.53;;;;;;;;;;10249831;28;20049;-68
2022/05/14 22:00:46;;;;;;;19.17;5.18;;;;;;;;;;10245415;28;20075;-68
2022/05/14 22:05:43;;;;;;;18.52;4.68;;;;;;;;;;10285367;28;20044;-68
2022/05/14 22:10:40;;;;;;;22.77;6.75;;;;;;;;;;10236617;28;20432;-67
2022/05/14 22:15:36;;;;;;;18.58;5.05;;;;;;;;;;10124149;28;20123;-68
2022/05/14 22:20:33;;;;;;;19.83;4.78;;;;;;;;;;10239336;28;20145;-67
2022/05/14 22:25:30;;;;;;;19.73;5.00;;;;;;;;;;10270132;28;20136;-67
2022/05/14 22:30:26;;;;;;;18.00;5.70;;;;;;;;;;10259916;28;20128;-67
2022/05/14 22:35:22;;;;;;;16.38;4.78;;;;;;;;;;10282693;28;20040;-67
2022/05/14 22:45:34;;;;;;;15.07;4.60;;;;;;;;;;10269698;28;20095;-67
2022/05/14 22:50:30;;;;;;;22.48;5.38;;;;;;;;;;10272873;28;20091;-67
2022/05/14 22:55:27;;;;;;;19.45;4.90;;;;;;;;;;10260835;28;20047;-67
2022/05/14 23:00:24;;;;;;;17.17;4.80;;;;;;;;;;10259686;28;20098;-67
2022/05/14 23:05:20;;;;;;;16.73;4.60;;;;;;;;;;10258976;28;20107;-68
2022/05/14 23:10:17;;;;;;;15.07;4.75;;;;;;;;;;10308068;28;20044;-67
2022/05/14 23:15:15;;;;;;;19.35;4.65;;;;;;;;;;10276082;28;20141;-69
2022/05/14 23:20:13;;;;;;;17.17;5.72;;;;;;;;;;10249042;28;20130;-68
2022/05/14 23:25:12;;;;;;;17.20;5.22;;;;;;;;;;10252490;28;20069;-67
2022/05/14 23:30:09;;;;;;;18.65;6.07;;;;;;;;;;10267834;28;20045;-67
2022/05/14 23:35:06;;;;;;;17.55;6.05;;;;;;;;;;10277126;28;20076;-69
2022/05/14 23:40:03;;;;;;;16.65;4.72;;;;;;;;;;10272789;28;20136;-68
2022/05/14 23:45:00;;;;;;;24.33;5.30;;;;;;;;;;10278751;28;20045;-68
2022/05/14 23:49:56;;;;;;;25.63;5.88;;;;;;;;;;10260718;28;20088;-68
2022/05/14 23:54:52;;;;;;;24.88;6.30;;;;;;;;;;10263347;28;20541;-68
